Time;durP1;ratioP1;P1;durP2;ratioP2;P2;SDS_P1;SDS_P2;PMS_P1;PMS_P2;Temp;Humidity;BMP_temperature;BMP_pressure;BME280_temperature;BME280_humidity;BME280_pressure;Samples;Min_cycle;Max_cycle;Signal;HPM_P1;HPM_P2
2022/01/17 00:01:34;;;;;;;24.37;12.73;;;;;;;5.13;56.41;100480.87;4408157;32;31698;-81
2022/01/17 00:04:10;;;;;;;23.67;12.05;;;;;;;4.87;57.09;100472.59;4411090;32;33655;-80
2022/01/17 00:06:46;;;;;;;25.95;12.65;;;;;;;4.44;58.44;100473.31;4425007;32;34428;-80
2022/01/17 00:09:18;;;;;;;27.90;13.25;;;;;;;4.42;58.71;100470.72;4414060;32;33646;-81
2022/01/17 00:11:48;;;;;;;25.50;13.50;;;;;;;4.70;58.14;100463.41;4412418;32;34206;-80
2022/01/17 00:14:22;;;;;;;27.10;13.48;;;;;;;4.60;58.25;100457.16;4411795;32;33712;-81
2022/01/17 00:17:05;;;;;;;29.35;13.77;;;;;;;4.75;57.67;100463.81;4414179;32;34506;-81
2022/01/17 00:19:42;;;;;;;26.35;13.43;;;;;;;5.04;56.88;100468.19;4401130;32;33539;-81
2022/01/17 00:22:14;;;;;;;29.20;12.43;;;;;;;4.77;57.87;100456.34;4424895;32;32010;-81
2022/01/17 00:24:49;;;;;;;25.30;12.40;;;;;;;4.48;58.33;100453.81;4412948;32;32459;-81
2022/01/17 00:27:19;;;;;;;24.10;12.60;;;;;;;4.54;58.50;100455.94;4411597;32;35124;-81
2022/01/17 00:29:56;;;;;;;23.45;11.90;;;;;;;4.22;59.65;100464.53;4422813;32;32368;-80
2022/01/17 00:32:26;;;;;;;25.60;12.55;;;;;;;4.83;57.73;100453.00;4423340;32;33413;-81
2022/01/17 00:34:57;;;;;;;23.55;11.93;;;;;;;4.15;59.82;100452.53;4410829;32;33734;-81
2022/01/17 00:37:25;;;;;;;22.17;11.70;;;;;;;4.79;57.93;100458.91;4410546;32;34098;-80
2022/01/17 00:39:59;;;;;;;27.73;13.20;;;;;;;4.82;57.72;100459.47;4410531;32;33380;-81
2022/01/17 00:42:31;;;;;;;23.40;11.90;;;;;;;4.81;57.64;100465.91;4410627;32;31908;-82
2022/01/17 00:45:02;;;;;;;24.48;11.90;;;;;;;4.81;58.02;100457.75;4410636;32;34003;-82
2022/01/17 00:47:30;;;;;;;24.92;11.90;;;;;;;4.48;58.58;100472.00;4409684;32;32379;-81
2022/01/17 00:50:00;;;;;;;24.30;12.50;;;;;;;4.80;57.86;100466.91;4397866;32;32354;-82
2022/01/17 00:52:34;;;;;;;21.25;11.02;;;;;;;4.66;58.06;100462.00;4410546;32;32839;-82
2022/01/17 00:55:02;;;;;;;20.83;11.12;;;;;;;4.81;57.73;100460.47;4410646;32;34653;-82
2022/01/17 00:57:31;;;;;;;25.35;11.93;;;;;;;4.80;57.81;100471.50;4423140;32;34357;-82
2022/01/17 01:00:02;;;;;;;21.77;11.40;;;;;;;4.78;58.08;100470.81;4410591;32;34576;-82
2022/01/17 01:02:43;;;;;;;22.37;11.30;;;;;;;4.93;57.21;100464.69;4410971;32;33071;-82
2022/01/17 01:05:16;;;;;;;21.40;10.27;;;;;;;4.92;57.47;100464.84;4397850;32;33335;-82
2022/01/17 01:07:50;;;;;;;18.60;9.65;;;;;;;5.24;56.45;100469.72;4410554;32;34132;-82
2022/01/17 01:10:18;;;;;;;19.70;9.90;;;;;;;5.15;56.70;100466.09;4410494;32;34738;-82
2022/01/17 01:12:47;;;;;;;20.83;10.07;;;;;;;5.09;56.95;100463.16;4397957;32;33294;-82
2022/01/17 01:15:32;;;;;;;17.20;8.73;;;;;;;5.27;56.40;100463.97;4422999;32;31859;-82
2022/01/17 01:18:12;;;;;;;18.70;8.98;;;;;;;5.12;56.56;100454.69;4410210;32;34290;-82
2022/01/17 01:28:56;;;;;;;17.70;7.60;;;;;;;5.28;55.96;100439.31;4412381;32;34379;-83
2022/01/17 01:31:42;;;;;;;15.70;7.62;;;;;;;5.00;56.41;100426.00;4410069;32;32662;-82
2022/01/17 01:34:27;;;;;;;15.43;7.28;;;;;;;5.22;55.71;100437.22;4411882;32;32818;-82
2022/01/17 01:36:57;;;;;;;15.02;7.35;;;;;;;5.37;55.47;100432.09;4410118;32;32333;-82
2022/01/17 01:39:32;;;;;;;13.70;6.82;;;;;;;5.44;55.09;100430.44;4410421;32;32328;-82
2022/01/17 01:42:03;;;;;;;13.82;6.80;;;;;;;5.39;55.12;100421.06;4409989;32;34130;-82
2022/01/17 01:44:39;;;;;;;13.45;6.50;;;;;;;5.34;55.43;100431.56;4410612;32;33617;-82
2022/01/17 01:47:09;;;;;;;13.25;6.90;;;;;;;5.14;55.54;100426.31;4410569;32;33408;-82
2022/01/17 01:49:44;;;;;;;14.35;7.12;;;;;;;5.07;55.71;100421.66;4422161;32;33837;-82
2022/01/17 01:52:14;;;;;;;13.70;6.87;;;;;;;5.40;54.94;100420.88;4410451;32;32365;-83
2022/01/17 01:54:49;;;;;;;15.52;6.60;;;;;;;5.14;55.33;100412.69;4397502;32;33192;-82
2022/01/17 01:57:24;;;;;;;13.52;6.60;;;;;;;5.09;55.48;100415.03;4409635;32;31956;-82
2022/01/17 01:59:58;;;;;;;12.65;6.47;;;;;;;5.37;54.87;100413.03;4410432;32;32901;-82
2022/01/17 02:02:29;;;;;;;13.32;7.03;;;;;;;5.55;54.18;100422.03;4422678;32;33921;-82
2022/01/17 02:04:57;;;;;;;12.95;6.47;;;;;;;5.15;55.58;100419.84;4397439;32;33367;-82
2022/01/17 02:07:27;;;;;;;12.82;6.72;;;;;;;5.47;54.66;100424.69;4410010;32;32668;-83
2022/01/17 02:09:55;;;;;;;13.32;6.82;;;;;;;4.83;56.57;100424.97;4410231;32;35201;-82
2022/01/17 02:12:25;;;;;;;14.20;7.20;;;;;;;4.76;56.73;100446.47;4410170;32;34188;-82
2022/01/17 02:14:56;;;;;;;15.32;7.12;;;;;;;5.10;56.08;100435.78;4410294;32;33326;-82
2022/01/17 02:17:25;;;;;;;15.60;7.40;;;;;;;5.11;56.02;100428.47;4409882;32;31952;-82
2022/01/17 02:20:07;;;;;;;15.70;7.60;;;;;;;5.49;54.98;100432.69;4397408;32;32537;-82
2022/01/17 02:22:40;;;;;;;16.95;8.30;;;;;;;5.15;55.69;100432.59;4422399;32;32363;-82
2022/01/17 02:25:11;;;;;;;15.98;8.20;;;;;;;5.20;55.90;100441.16;4410171;32;33552;-82
2022/01/17 02:27:42;;;;;;;13.82;7.35;;;;;;;5.33;55.56;100427.97;4397456;32;31783;-83
2022/01/17 02:30:22;;;;;;;15.93;8.40;;;;;;;5.35;55.30;100425.94;4410225;32;35249;-82
2022/01/17 02:32:50;;;;;;;15.95;8.45;;;;;;;5.55;54.76;100416.59;4410033;32;33330;-83
2022/01/17 02:35:21;;;;;;;14.25;8.10;;;;;;;5.24;55.37;100423.47;4409747;32;31860;-82
2022/01/17 02:37:53;;;;;;;14.13;7.35;;;;;;;5.42;55.33;100412.56;4422116;32;32277;-82
2022/01/17 02:40:24;;;;;;;15.75;8.52;;;;;;;5.35;55.49;100416.94;4409065;32;33635;-83
2022/01/17 02:43:06;;;;;;;16.12;7.78;;;;;;;5.13;55.76;100405.56;4409457;32;32337;-82
2022/01/17 02:46:24;;;;;;;15.88;7.55;;;;;;;5.40;55.44;100407.28;4411178;32;33396;-82
2022/01/17 02:48:29;;;;;;;13.50;7.22;;;;;;;5.63;54.75;100391.28;4424351;32;32187;-83
2022/01/17 02:51:06;;;;;;;14.10;7.43;;;;;;;5.82;54.13;100393.81;4409375;32;33976;-83
2022/01/17 02:53:40;;;;;;;14.95;7.62;;;;;;;5.43;54.83;100392.50;4410390;32;33853;-83
2022/01/17 02:56:13;;;;;;;13.75;6.93;;;;;;;5.15;55.39;100389.06;4397427;32;31793;-82
2022/01/17 02:58:44;;;;;;;14.60;7.20;;;;;;;5.08;56.05;100385.25;4422281;32;34578;-82
2022/01/17 03:01:18;;;;;;;13.60;7.20;;;;;;;5.29;55.12;100386.63;4409464;32;34697;-83
2022/01/17 03:03:53;;;;;;;14.87;7.28;;;;;;;5.30;55.01;100374.72;4409949;32;33891;-83
2022/01/17 03:06:21;;;;;;;14.45;7.03;;;;;;;5.43;54.54;100365.28;4409551;32;33260;-82
2022/01/17 03:08:52;;;;;;;16.10;7.47;;;;;;;5.27;55.17;100368.72;4409441;32;33781;-82
2022/01/17 03:11:24;;;;;;;14.05;6.82;;;;;;;5.33;54.90;100359.09;4397222;32;32849;-83
2022/01/17 03:13:58;;;;;;;15.23;7.75;;;;;;;4.93;55.71;100349.59;4409691;32;35095;-83
2022/01/17 03:16:34;;;;;;;14.80;6.78;;;;;;;5.33;54.73;100354.50;4409641;32;32215;-83
2022/01/17 03:19:05;;;;;;;14.23;6.28;;;;;;;5.04;55.32;100362.09;4424603;32;33586;-82
2022/01/17 03:21:36;;;;;;;14.07;7.10;;;;;;;5.36;54.51;100348.72;4423236;32;33012;-83
2022/01/17 03:24:11;;;;;;;13.75;6.93;;;;;;;5.48;54.37;100347.47;4409527;32;32468;-82
2022/01/17 03:26:43;;;;;;;12.27;6.80;;;;;;;5.58;53.78;100348.19;4411558;32;33522;-82
2022/01/17 03:29:13;;;;;;;11.70;5.97;;;;;;;5.08;55.14;100358.91;4410765;32;33718;-82
2022/01/17 03:31:46;;;;;;;14.00;6.65;;;;;;;4.98;55.26;100352.69;4409754;32;34577;-82
2022/01/17 03:34:15;;;;;;;11.70;6.03;;;;;;;4.79;55.96;100369.19;4424825;32;32898;-82
2022/01/17 03:36:49;;;;;;;14.35;6.55;;;;;;;5.03;55.47;100382.16;4409981;32;32657;-82
2022/01/17 03:39:23;;;;;;;11.90;6.22;;;;;;;5.29;54.40;100386.63;4409110;32;33911;-82
2022/01/17 03:41:53;;;;;;;13.57;6.30;;;;;;;5.39;54.34;100397.41;4421552;32;34236;-82
2022/01/17 03:44:26;;;;;;;13.77;6.82;;;;;;;5.30;54.46;100399.22;4408816;32;32449;-82
2022/01/17 03:46:54;;;;;;;14.43;6.97;;;;;;;5.58;53.44;100402.66;4409022;32;33328;-82
2022/01/17 03:49:25;;;;;;;11.12;5.90;;;;;;;5.84;52.74;100390.91;4408740;32;32440;-81
2022/01/17 03:52:00;;;;;;;12.95;6.37;;;;;;;5.76;52.99;100394.44;4421885;32;35021;-82
2022/01/17 03:54:35;;;;;;;12.80;6.78;;;;;;;5.67;53.12;100389.94;4421029;32;31993;-82
2022/01/17 03:57:08;;;;;;;14.30;7.18;;;;;;;5.33;54.24;100380.84;4409349;32;31639;-82
2022/01/17 03:59:38;;;;;;;13.00;6.68;;;;;;;5.48;53.85;100388.28;4408631;32;33227;-82
2022/01/17 04:02:08;;;;;;;14.68;7.05;;;;;;;5.60;53.52;100384.28;4408387;32;33691;-83
2022/01/17 04:04:38;;;;;;;12.10;6.95;;;;;;;5.60;53.71;100397.91;4408757;32;32351;-82
2022/01/17 04:07:12;;;;;;;14.98;7.12;;;;;;;5.30;54.40;100398.34;4408926;32;33370;-82
2022/01/17 04:09:43;;;;;;;13.50;6.35;;;;;;;5.34;54.60;100394.31;4401339;32;32443;-82
2022/01/17 04:12:13;;;;;;;15.00;7.68;;;;;;;5.60;53.78;100392.47;4406152;32;33771;-82
2022/01/17 04:14:53;;;;;;;14.82;7.45;;;;;;;5.41;54.33;100387.22;4420247;32;32404;-82
2022/01/17 04:17:31;;;;;;;12.85;6.35;;;;;;;5.55;54.05;100383.91;4420751;32;33374;-82
2022/01/17 04:20:09;;;;;;;17.10;7.93;;;;;;;5.67;53.88;100391.81;4420022;32;33927;-82
2022/01/17 04:22:54;;;;;;;14.63;7.15;;;;;;;6.04;52.72;100400.56;4407137;32;32836;-82
2022/01/17 04:25:25;;;;;;;17.25;8.02;;;;;;;5.88;53.08;100395.84;4419386;32;31989;-82
2022/01/17 04:27:53;;;;;;;16.23;7.50;;;;;;;5.90;53.11;100402.03;4408129;32;34112;-82
2022/01/17 04:30:25;;;;;;;15.27;7.22;;;;;;;6.02;52.84;100404.47;4407696;32;33173;-82
2022/01/17 04:32:58;;;;;;;15.32;7.82;;;;;;;5.93;53.08;100409.00;4420676;32;32997;-82
2022/01/17 04:35:32;;;;;;;13.20;7.50;;;;;;;6.13;52.58;100423.25;4420456;32;32289;-82
2022/01/17 04:38:08;;;;;;;15.95;8.27;;;;;;;6.17;52.69;100408.28;4420743;32;31756;-82
2022/01/17 04:40:43;;;;;;;15.68;7.70;;;;;;;6.03;52.83;100404.31;4407665;32;33304;-82
2022/01/17 04:43:18;;;;;;;13.95;7.03;;;;;;;6.04;52.84;100395.12;4408010;32;34676;-82
2022/01/17 04:45:51;;;;;;;13.23;7.32;;;;;;;5.77;53.60;100387.97;4416579;32;32500;-82
2022/01/17 04:48:23;;;;;;;16.90;7.70;;;;;;;5.81;53.50;100381.19;4404944;32;31369;-82
2022/01/17 04:50:54;;;;;;;14.82;7.53;;;;;;;6.18;52.72;100378.16;4395293;32;31859;-82
2022/01/17 04:53:29;;;;;;;12.93;6.75;;;;;;;5.81;53.48;100370.31;4407443;32;34333;-82
2022/01/17 04:56:00;;;;;;;14.65;6.97;;;;;;;6.19;52.66;100376.28;4417827;32;33344;-82
2022/01/17 04:58:32;;;;;;;17.67;7.75;;;;;;;5.96;53.01;100367.81;4404864;32;31737;-82
2022/01/17 05:01:05;;;;;;;13.85;7.57;;;;;;;5.80;53.49;100373.19;4419614;32;34755;-82
2022/01/17 05:03:41;;;;;;;14.35;7.70;;;;;;;5.97;53.30;100368.69;4407641;32;33066;-82
2022/01/17 05:06:15;;;;;;;14.93;7.28;;;;;;;6.00;53.31;100361.03;4406706;32;32199;-82
2022/01/17 05:08:49;;;;;;;12.63;6.37;;;;;;;6.01;53.15;100367.34;4408044;32;34050;-82
2022/01/17 05:11:24;;;;;;;18.95;8.05;;;;;;;5.97;53.25;100380.44;4400444;32;32218;-82
2022/01/17 05:13:52;;;;;;;14.82;7.03;;;;;;;6.23;52.69;100373.06;4401004;32;35246;-82
2022/01/17 05:16:33;;;;;;;15.32;7.03;;;;;;;6.01;53.12;100375.53;4398261;32;32307;-82
2022/01/17 05:21:49;;;;;;;15.00;7.65;;;;;;;5.98;53.12;100379.41;4403415;32;33300;-82
2022/01/17 05:24:18;;;;;;;13.88;7.45;;;;;;;5.96;53.34;100376.00;4405727;32;35116;-82
2022/01/17 05:26:48;;;;;;;15.13;7.75;;;;;;;5.64;54.26;100382.09;4420507;32;33786;-84
2022/01/17 05:29:17;;;;;;;14.35;6.87;;;;;;;5.66;54.29;100388.25;4408146;32;32710;-82
2022/01/17 05:31:48;;;;;;;15.05;7.53;;;;;;;5.66;54.34;100380.06;4408981;32;33705;-81
2022/01/17 05:34:16;;;;;;;14.90;7.75;;;;;;;6.21;54.70;100383.28;4405217;32;33319;-80
2022/01/17 05:36:47;;;;;;;14.13;7.75;;;;;;;6.33;54.20;100372.94;4404847;32;32425;-81
2022/01/17 05:39:20;;;;;;;16.00;7.80;;;;;;;6.22;53.38;100363.19;4392993;32;33866;-82
2022/01/17 05:41:50;;;;;;;15.38;8.75;;;;;;;6.02;53.21;100364.47;4396458;32;33672;-81
2022/01/17 05:44:19;;;;;;;17.23;8.15;;;;;;;6.43;52.58;100351.00;4392417;32;34306;-82
2022/01/17 05:46:49;;;;;;;15.57;7.47;;;;;;;6.31;52.78;100352.31;4380254;32;32402;-81
2022/01/17 05:49:20;;;;;;;14.90;7.25;;;;;;;5.82;54.22;100352.09;4392473;32;31958;-91
2022/01/17 05:51:51;;;;;;;14.87;7.82;;;;;;;6.10;53.23;100341.84;4411391;32;32932;-81
2022/01/17 05:54:19;;;;;;;13.98;7.53;;;;;;;5.59;54.54;100349.91;4420195;32;34127;-80
2022/01/17 05:56:54;;;;;;;13.65;7.80;;;;;;;5.66;54.47;100343.81;4419794;32;32453;-80
2022/01/17 05:59:27;;;;;;;14.77;7.35;;;;;;;5.59;54.74;100341.75;4407611;32;32842;-80
2022/01/17 06:02:00;;;;;;;14.27;7.68;;;;;;;5.73;54.36;100343.03;4419841;32;33149;-82
2022/01/17 06:04:31;;;;;;;14.52;7.50;;;;;;;5.97;53.47;100339.56;4405774;32;33604;-81
2022/01/17 06:07:01;;;;;;;14.10;7.22;;;;;;;5.97;53.36;100341.44;4393422;32;33447;-82
2022/01/17 06:09:30;;;;;;;13.52;6.40;;;;;;;5.89;53.65;100342.25;4400983;32;31779;-79
2022/01/17 06:12:03;;;;;;;14.10;7.03;;;;;;;5.78;53.72;100345.25;4398431;32;33524;-82
2022/01/17 06:14:36;;;;;;;13.00;6.50;;;;;;;6.14;52.91;100340.50;4419550;32;32976;-81
2022/01/17 06:17:04;;;;;;;15.43;7.60;;;;;;;6.04;53.18;100337.91;4406617;32;33921;-81
2022/01/17 06:19:36;;;;;;;14.15;7.43;;;;;;;5.97;53.39;100338.72;4407285;32;31860;-80
2022/01/17 06:22:04;;;;;;;12.73;6.45;;;;;;;6.04;53.00;100335.19;4407437;32;34635;-81
2022/01/17 06:24:32;;;;;;;15.02;6.93;;;;;;;5.89;53.62;100345.84;4394920;32;33559;-82
2022/01/17 06:27:05;;;;;;;13.90;6.65;;;;;;;5.79;53.93;100346.97;4407152;32;34455;-80
2022/01/17 06:29:40;;;;;;;14.52;6.90;;;;;;;5.76;54.02;100347.28;4408442;32;32326;-80
2022/01/17 06:32:09;;;;;;;12.75;7.10;;;;;;;5.91;53.54;100354.69;4407430;32;32053;-81
2022/01/17 06:34:56;;;;;;;11.57;6.62;;;;;;;5.95;53.77;100347.91;4407226;32;32483;-82
2022/01/17 06:37:29;;;;;;;12.88;7.03;;;;;;;5.87;53.86;100338.81;4418957;32;34058;-81
2022/01/17 06:39:57;;;;;;;11.82;6.53;;;;;;;5.98;53.54;100348.59;4394468;32;31997;-80
2022/01/17 06:42:25;;;;;;;12.10;5.90;;;;;;;5.75;53.77;100341.00;4404789;32;33730;-80
2022/01/17 06:44:53;;;;;;;13.95;7.68;;;;;;;5.89;53.59;100324.03;4392325;32;33667;-82
2022/01/17 06:47:23;;;;;;;12.13;5.93;;;;;;;6.07;53.23;100325.81;4392060;32;32568;-81
2022/01/17 06:49:51;;;;;;;13.15;6.37;;;;;;;5.97;53.14;100315.06;4404358;32;31866;-81
2022/01/17 06:52:28;;;;;;;13.07;6.50;;;;;;;6.21;52.68;100320.59;4403555;32;33170;-82
2022/01/17 06:54:56;;;;;;;12.40;6.32;;;;;;;6.07;52.82;100317.66;4399972;32;34656;-81
2022/01/17 06:57:24;;;;;;;13.43;6.60;;;;;;;5.95;53.26;100327.97;4406740;32;33322;-81
2022/01/17 06:59:55;;;;;;;13.27;6.60;;;;;;;6.30;52.60;100328.81;4406838;32;33554;-81
2022/01/17 07:02:26;;;;;;;10.45;5.80;;;;;;;6.20;52.61;100310.72;4407052;32;33258;-81
2022/01/17 07:04:56;;;;;;;11.35;5.45;;;;;;;5.97;53.24;100306.88;4382341;32;32970;-82
2022/01/17 07:07:24;;;;;;;11.25;5.60;;;;;;;5.73;53.80;100304.03;4407459;32;33449;-82
2022/01/17 07:09:52;;;;;;;14.25;6.90;;;;;;;5.76;53.96;100307.28;4381532;32;33440;-81
2022/01/17 07:12:20;;;;;;;15.90;7.75;;;;;;;5.93;53.95;100291.87;4409539;32;32847;-82
2022/01/17 07:14:52;;;;;;;11.85;6.12;;;;;;;6.33;52.78;100284.84;4409778;32;35155;-82
2022/01/17 07:17:25;;;;;;;11.40;5.82;;;;;;;6.10;53.06;100287.34;4397247;32;34595;-81
2022/01/17 07:19:58;;;;;;;11.07;5.85;;;;;;;6.35;52.63;100289.13;4397262;32;32127;-82
2022/01/17 07:22:31;;;;;;;15.02;7.28;;;;;;;6.11;53.31;100297.22;4397024;32;32267;-81
2022/01/17 07:25:03;;;;;;;15.10;6.15;;;;;;;5.91;53.73;100285.75;4409406;32;32319;-82
2022/01/17 07:27:40;;;;;;;11.82;5.85;;;;;;;6.26;53.16;100296.41;4409880;32;34736;-82
2022/01/17 07:30:09;;;;;;;10.27;5.72;;;;;;;5.94;53.96;100307.19;4409852;32;32588;-81
2022/01/17 07:32:43;;;;;;;11.65;5.78;;;;;;;5.71;54.54;100327.84;4409088;32;33615;-82
2022/01/17 07:35:16;;;;;;;22.08;6.50;;;;;;;5.99;53.71;100345.72;4397221;32;34576;-81
2022/01/17 07:37:52;;;;;;;12.57;6.03;;;;;;;6.14;53.54;100344.06;4409933;32;33647;-82
2022/01/17 07:40:24;;;;;;;9.90;5.18;;;;;;;5.66;54.69;100362.87;4409175;32;31732;-82
2022/01/17 07:42:54;;;;;;;11.40;5.22;;;;;;;5.92;54.16;100385.50;4409140;32;32880;-82
2022/01/17 07:45:26;;;;;;;10.35;5.07;;;;;;;5.89;54.22;100402.19;4396376;32;33572;-81
2022/01/17 07:48:11;;;;;;;9.80;5.00;;;;;;;5.88;54.61;100423.09;4410325;32;34275;-81
2022/01/17 07:50:39;;;;;;;10.68;5.35;;;;;;;6.25;53.77;100419.25;4387289;32;33406;-82
2022/01/17 07:53:07;;;;;;;10.25;5.18;;;;;;;6.41;53.19;100399.37;4398416;32;33611;-82
2022/01/17 07:55:38;;;;;;;11.70;5.55;;;;;;;6.32;54.09;100381.28;4410957;32;32800;-81
2022/01/17 07:58:08;;;;;;;9.80;5.40;;;;;;;6.40;53.87;100356.78;4412681;32;33004;-81
2022/01/17 08:00:41;;;;;;;12.93;6.55;;;;;;;6.48;52.97;100345.91;4399435;32;31890;-81
2022/01/17 08:03:09;;;;;;;10.82;5.32;;;;;;;6.33;53.15;100333.91;4417960;32;33889;-81
2022/01/17 08:05:38;;;;;;;11.30;4.68;;;;;;;6.25;53.60;100342.91;4400747;32;33660;-80
2022/01/17 08:08:05;;;;;;;9.80;5.10;;;;;;;6.41;53.37;100342.97;4412822;32;34593;-81
2022/01/17 08:10:38;;;;;;;9.90;4.93;;;;;;;6.31;53.44;100331.34;4411912;32;31723;-80
2022/01/17 08:13:10;;;;;;;10.32;5.10;;;;;;;6.47;53.37;100330.56;4399326;32;32377;-81
2022/01/17 08:15:38;;;;;;;9.35;4.82;;;;;;;6.16;54.11;100317.50;4411038;32;34703;-81
2022/01/17 08:18:07;;;;;;;10.68;4.70;;;;;;;6.17;54.01;100313.75;4410928;32;33634;-81
2022/01/17 08:20:35;;;;;;;12.35;6.07;;;;;;;6.48;53.15;100292.22;4398809;32;33125;-81
2022/01/17 08:23:10;;;;;;;9.50;5.47;;;;;;;6.60;53.79;100292.72;4398817;32;32217;-82
2022/01/17 08:25:39;;;;;;;9.45;4.72;;;;;;;6.44;53.48;100271.75;4409243;32;33541;-82
2022/01/17 08:28:07;;;;;;;9.18;5.20;;;;;;;6.41;53.75;100276.69;4410771;32;34800;-82
2022/01/17 08:30:41;;;;;;;9.45;4.68;;;;;;;6.70;52.78;100274.31;4398310;32;33871;-83
2022/01/17 08:33:31;;;;;;;11.32;5.70;;;;;;;6.52;53.23;100270.87;4400230;32;32472;-83
2022/01/17 08:36:07;;;;;;;10.35;5.03;;;;;;;6.55;53.05;100274.13;4385517;32;33616;-82
2022/01/17 08:38:47;;;;;;;10.68;4.80;;;;;;;6.72;52.71;100280.44;4412152;32;34925;-82
2022/01/17 08:41:17;;;;;;;9.80;4.72;;;;;;;6.27;53.58;100291.81;4398385;32;32393;-82
2022/01/17 08:43:50;;;;;;;13.35;5.80;;;;;;;6.11;54.14;100308.97;4411203;32;34037;-82
2022/01/17 08:46:22;;;;;;;13.00;5.05;;;;;;;6.16;54.19;100333.00;4410612;32;33302;-82
2022/01/17 08:48:54;;;;;;;12.73;5.07;;;;;;;6.69;52.69;100334.50;4410689;32;34884;-82
2022/01/17 08:51:24;;;;;;;13.00;6.35;;;;;;;6.62;53.20;100342.50;4410632;32;33139;-82
2022/01/17 08:53:53;;;;;;;9.02;5.15;;;;;;;6.61;53.10;100343.50;4410643;32;32816;-82
2022/01/17 08:56:32;;;;;;;12.32;6.25;;;;;;;6.51;53.42;100327.28;4398107;32;35244;-82
2022/01/17 08:59:07;;;;;;;11.63;5.68;;;;;;;6.47;53.55;100314.19;4410362;32;32381;-82
2022/01/17 09:01:38;;;;;;;10.55;5.28;;;;;;;6.74;52.94;100302.97;4398121;32;32808;-82
2022/01/17 09:04:08;;;;;;;14.55;5.37;;;;;;;6.49;53.59;100265.81;4385999;32;33040;-83
2022/01/17 09:06:46;;;;;;;9.93;5.62;;;;;;;6.44;54.36;100249.94;4385409;32;33273;-83
2022/01/17 09:09:19;;;;;;;10.88;5.68;;;;;;;6.43;54.73;100270.06;4410284;32;32617;-83
2022/01/17 09:11:52;;;;;;;11.20;5.97;;;;;;;6.25;55.36;100267.47;4424305;32;33135;-82
2022/01/17 09:14:27;;;;;;;12.57;5.35;;;;;;;6.22;55.42;100256.91;4411197;32;34492;-83
2022/01/17 09:16:55;;;;;;;10.68;5.57;;;;;;;6.41;54.99;100260.34;4410732;32;35221;-82
2022/01/17 09:19:23;;;;;;;11.35;5.50;;;;;;;6.12;55.60;100255.34;4398020;32;32986;-82
2022/01/17 09:21:51;;;;;;;11.00;5.97;;;;;;;6.01;55.76;100253.75;4410533;32;32163;-82
2022/01/17 09:24:19;;;;;;;10.13;5.62;;;;;;;6.27;55.01;100253.66;4410362;32;31877;-82
2022/01/17 09:26:49;;;;;;;9.90;5.53;;;;;;;6.03;55.53;100240.84;4397738;32;35264;-82
2022/01/17 09:29:17;;;;;;;10.85;5.80;;;;;;;6.15;55.01;100236.78;4398144;32;32484;-82
2022/01/17 09:31:47;;;;;;;11.57;5.75;;;;;;;6.06;54.95;100240.50;4410789;32;33343;-82
2022/01/17 09:34:19;;;;;;;10.40;5.72;;;;;;;6.39;54.42;100238.69;4397298;32;32755;-82
2022/01/17 09:36:50;;;;;;;13.30;6.97;;;;;;;6.38;54.23;100230.69;4395949;32;34875;-82
2022/01/17 09:39:21;;;;;;;17.10;6.10;;;;;;;6.53;53.95;100220.78;4411237;32;32508;-82
2022/01/17 09:41:55;;;;;;;12.90;6.07;;;;;;;6.42;53.91;100212.97;4411889;32;33506;-82
2022/01/17 09:44:23;;;;;;;12.23;6.07;;;;;;;6.41;54.15;100216.72;4385767;32;33857;-83
2022/01/17 09:46:55;;;;;;;10.45;6.18;;;;;;;6.30;54.25;100204.28;4398118;32;33292;-82
2022/01/17 09:49:35;;;;;;;12.00;5.70;;;;;;;6.54;53.71;100195.22;4412469;32;33777;-79
2022/01/17 09:55:02;;;;;;;11.65;5.70;;;;;;;6.33;53.97;100164.91;4412204;32;33387;-77
2022/01/17 09:57:31;;;;;;;10.80;6.18;;;;;;;6.33;54.04;100162.19;4411917;32;34330;-82
2022/01/17 09:59:59;;;;;;;10.77;5.93;;;;;;;7.15;55.72;100161.84;4411704;32;32751;-82
2022/01/17 10:02:31;;;;;;;9.65;5.28;;;;;;;7.04;52.06;100162.25;4384358;32;33261;-83
2022/01/17 10:05:05;;;;;;;11.65;6.22;;;;;;;6.80;52.57;100165.87;4410989;32;34576;-82
2022/01/17 10:07:56;;;;;;;9.70;5.65;;;;;;;7.09;51.83;100168.03;4410685;32;35204;-82
2022/01/17 10:10:51;;;;;;;12.73;5.70;;;;;;;7.02;52.07;100161.59;4409409;32;33180;-82
2022/01/17 10:13:26;;;;;;;9.73;5.35;;;;;;;7.19;51.35;100159.63;4410033;32;33647;-82
2022/01/17 10:16:02;;;;;;;10.25;5.12;;;;;;;7.46;50.78;100159.19;4410521;32;33541;-82
2022/01/17 10:18:38;;;;;;;10.23;5.10;;;;;;;7.25;51.11;100170.69;4397424;32;32576;-82
2022/01/17 10:21:20;;;;;;;11.40;5.50;;;;;;;6.96;51.81;100164.16;4397641;32;32117;-82
2022/01/17 10:27:05;;;;;;;10.88;5.40;;;;;;;7.02;51.51;100127.97;4422562;32;33614;-82
2022/01/17 10:35:37;;;;;;;9.65;5.40;;;;;;;6.99;51.64;100117.41;4399403;32;32390;-83
2022/01/17 10:38:20;;;;;;;12.00;5.47;;;;;;;7.10;51.48;100122.50;4422455;32;32855;-82
2022/01/17 10:40:58;;;;;;;13.82;6.32;;;;;;;6.83;52.12;100110.12;4422342;32;34570;-82
2022/01/17 10:43:32;;;;;;;10.98;5.43;;;;;;;7.04;51.56;100104.09;4422285;32;32777;-83
2022/01/17 10:46:04;;;;;;;11.73;6.75;;;;;;;7.16;51.32;100095.31;4422223;32;32751;-83
2022/01/17 10:48:36;;;;;;;15.63;6.85;;;;;;;7.27;51.07;100099.53;4422423;32;33487;-82
2022/01/17 10:51:05;;;;;;;11.98;6.07;;;;;;;7.23;51.31;100099.03;4422572;32;35081;-82
2022/01/17 10:53:36;;;;;;;11.48;6.03;;;;;;;7.10;51.97;100097.94;4422243;32;33781;-82
2022/01/17 10:56:08;;;;;;;14.27;6.53;;;;;;;7.47;51.13;100106.28;4422327;32;32682;-82
2022/01/17 10:58:38;;;;;;;16.58;6.00;;;;;;;7.17;52.12;100088.84;4422167;32;32650;-83
2022/01/17 11:01:12;;;;;;;11.43;5.85;;;;;;;7.38;52.09;100084.66;4419153;32;33580;-84
2022/01/17 11:03:47;;;;;;;11.60;5.75;;;;;;;7.09;52.90;100074.41;4419681;32;32518;-85
2022/01/17 11:06:21;;;;;;;12.68;5.55;;;;;;;7.18;52.63;100060.50;4407571;32;32628;-84
2022/01/17 11:08:51;;;;;;;11.07;5.40;;;;;;;7.09;52.77;100045.22;4406822;32;32313;-83
2022/01/17 11:11:22;;;;;;;11.50;5.37;;;;;;;7.15;52.47;100046.41;4419237;32;34464;-83
2022/01/17 11:13:54;;;;;;;10.00;4.85;;;;;;;7.12;52.59;100049.50;4406931;32;33817;-84
2022/01/17 11:16:23;;;;;;;10.27;5.45;;;;;;;7.14;52.58;100055.62;4420072;32;31518;-84
2022/01/17 11:18:58;;;;;;;9.63;5.20;;;;;;;7.30;52.02;100039.12;4406584;32;31844;-84
2022/01/17 11:21:32;;;;;;;10.63;5.22;;;;;;;7.13;52.19;100043.00;4409740;32;35014;-82
2022/01/17 11:24:01;;;;;;;10.25;5.55;;;;;;;7.40;52.01;100041.63;4398927;32;33969;-83
2022/01/17 11:26:31;;;;;;;11.95;5.60;;;;;;;7.36;51.93;100004.78;4398910;32;33370;-83
2022/01/17 11:29:07;;;;;;;11.18;5.12;;;;;;;7.70;51.05;100001.66;4411259;32;33838;-83
2022/01/17 11:31:37;;;;;;;10.70;5.20;;;;;;;7.81;50.56;100009.41;4399519;32;34707;-83
2022/01/17 11:34:24;;;;;;;9.95;5.55;;;;;;;7.59;51.01;99995.59;4386965;32;32659;-83
2022/01/17 11:36:59;;;;;;;10.65;5.18;;;;;;;7.59;51.12;100003.78;4411513;32;31762;-83
2022/01/17 11:39:30;;;;;;;11.32;4.60;;;;;;;7.56;50.87;100006.03;4411033;32;32130;-83
2022/01/17 11:41:58;;;;;;;10.48;4.07;;;;;;;7.71;50.41;100027.94;4398693;32;35140;-83
2022/01/17 11:44:37;;;;;;;8.45;4.03;;;;;;;8.06;49.66;100034.63;4386589;32;33536;-83
2022/01/17 11:47:09;;;;;;;7.53;3.62;;;;;;;7.71;50.04;100027.94;4411902;32;33725;-83
2022/01/17 11:49:40;;;;;;;8.27;3.60;;;;;;;7.78;50.09;100021.56;4386192;32;33094;-84
2022/01/17 11:52:27;;;;;;;9.90;3.70;;;;;;;7.99;49.50;100020.84;4398622;32;32784;-83
2022/01/17 11:54:56;;;;;;;9.57;3.90;;;;;;;7.98;49.10;100027.34;4411490;32;34813;-83
2022/01/17 11:57:27;;;;;;;10.02;3.67;;;;;;;7.65;49.96;100015.00;4411319;32;32171;-83
2022/01/17 12:00:04;;;;;;;13.45;4.03;;;;;;;7.84;49.94;100006.28;4411427;32;33825;-82
2022/01/17 12:02:41;;;;;;;6.70;3.10;;;;;;;7.83;49.81;99980.84;4410883;32;33509;-84
2022/01/17 12:05:13;;;;;;;7.25;3.47;;;;;;;7.40;50.79;99978.84;4411013;32;34098;-84
2022/01/17 12:07:44;;;;;;;9.38;4.00;;;;;;;7.68;50.65;99987.34;4411085;32;34084;-83
2022/01/17 12:10:20;;;;;;;9.70;4.20;;;;;;;7.74;50.47;99981.13;4407359;32;33229;-83
2022/01/17 12:13:14;;;;;;;10.43;4.15;;;;;;;7.46;50.90;99978.97;4408462;32;34361;-83